createdAt,value
2019-05-11T00:01:12.951Z,29.47
2019-05-11T00:03:39.483Z,30.97
2019-05-11T00:06:09.047Z,30.70
2019-05-11T00:08:35.648Z,31.07
2019-05-11T00:11:02.395Z,31.70
2019-05-11T00:13:28.927Z,31.47
2019-05-11T00:15:55.713Z,31.30
2019-05-11T00:18:22.224Z,31.03
2019-05-11T00:20:48.866Z,29.27
2019-05-11T00:23:15.536Z,29.63
2019-05-11T00:25:42.184Z,29.93
2019-05-11T00:28:08.771Z,29.70
2019-05-11T00:30:56.972Z,35.90
2019-05-11T00:33:24.131Z,35.87
2019-05-11T00:35:51.530Z,35.97
2019-05-11T00:38:18.242Z,36.73
2019-05-11T00:40:45.055Z,37.60
2019-05-11T00:43:12.133Z,35.63
2019-05-11T00:45:38.951Z,34.67
2019-05-11T00:48:08.751Z,35.27
2019-05-11T00:50:39.420Z,35.03
2019-05-11T00:53:04.645Z,34.10
2019-05-11T00:55:31.680Z,33.87
2019-05-11T00:58:01.889Z,34.23
2019-05-11T01:00:28.717Z,35.33
2019-05-11T01:02:55.603Z,36.03
2019-05-11T01:05:22.288Z,36.87
2019-05-11T01:07:49.050Z,36.63
2019-05-11T01:10:23.777Z,36.60
2019-05-11T01:12:44.162Z,34.30
2019-05-11T01:15:10.922Z,36.80
2019-05-11T01:17:37.430Z,34.60
2019-05-11T01:20:07.388Z,32.30
2019-05-11T01:22:34.003Z,30.97
2019-05-11T01:25:00.647Z,30.30
2019-05-11T01:27:27.327Z,30.67
2019-05-11T01:29:53.770Z,29.60
2019-05-11T01:32:20.664Z,28.90
2019-05-11T01:34:47.444Z,28.87
2019-05-11T01:37:14.207Z,28.60
2019-05-11T01:39:45.368Z,34.07
2019-05-11T01:42:13.366Z,36.43
2019-05-11T01:44:40.391Z,34.37
2019-05-11T01:47:07.354Z,35.60
2019-05-11T01:49:38.270Z,36.70
2019-05-11T01:52:16.753Z,34.60
2019-05-11T01:54:43.907Z,34.23
2019-05-11T01:57:13.344Z,35.47
2019-05-11T01:59:40.147Z,35.13
2019-05-11T02:02:10.208Z,36.67
2019-05-11T02:04:37.153Z,38.73
2019-05-11T02:07:06.805Z,42.47
2019-05-11T02:09:36.975Z,40.40
2019-05-11T02:12:03.644Z,37.77
2019-05-11T02:14:30.882Z,40.10
2019-05-11T02:17:01.090Z,40.27
2019-05-11T02:19:28.140Z,41.50
2019-05-11T02:21:55.490Z,42.33
2019-05-11T02:24:22.636Z,40.57
2019-05-11T02:26:49.716Z,40.00
2019-05-11T02:29:18.406Z,42.13
2019-05-11T02:31:45.215Z,42.03
2019-05-11T02:34:12.440Z,40.10
2019-05-11T02:36:39.945Z,41.27
2019-05-11T02:39:07.458Z,41.87
2019-05-11T02:41:37.212Z,39.53
2019-05-11T02:44:04.476Z,38.07
2019-05-11T02:46:31.333Z,38.50
2019-05-11T02:48:58.040Z,37.10
2019-05-11T02:51:26.122Z,35.13
2019-05-11T02:53:53.900Z,32.83
2019-05-11T02:56:21.212Z,31.33
2019-05-11T02:58:47.925Z,29.60
2019-05-11T03:01:14.999Z,30.70
2019-05-11T03:03:41.801Z,29.63
2019-05-11T03:06:08.513Z,28.40
2019-05-11T03:08:35.184Z,29.30
2019-05-11T03:11:02.053Z,28.37
2019-05-11T03:13:28.662Z,19.40
2019-05-11T03:15:55.456Z,18.13
2019-05-11T03:18:22.461Z,19.00
2019-05-11T03:20:49.380Z,19.73
2019-05-11T03:23:16.061Z,19.37
2019-05-11T03:25:42.950Z,19.23
2019-05-11T03:28:09.620Z,18.83
2019-05-11T03:30:36.276Z,19.30
2019-05-11T03:33:03.379Z,18.87
2019-05-11T03:35:30.445Z,17.43
2019-05-11T03:37:57.126Z,17.10
2019-05-11T03:40:24.213Z,17.87
2019-05-11T03:42:51.047Z,17.43
2019-05-11T03:45:17.851Z,17.83
2019-05-11T03:47:44.577Z,18.27
2019-05-11T03:50:11.412Z,16.90
2019-05-11T03:52:38.144Z,17.17
2019-05-11T03:55:05.512Z,17.67
2019-05-11T03:57:32.303Z,17.30
2019-05-11T03:59:59.279Z,18.13
2019-05-11T04:02:26.049Z,17.20
2019-05-11T04:04:53.032Z,16.87
2019-05-11T04:07:20.020Z,16.77
2019-05-11T04:09:46.923Z,16.83
2019-05-11T04:12:32.940Z,17.27
2019-05-11T04:14:42.066Z,18.50
2019-05-11T04:17:08.815Z,17.93
2019-05-11T04:19:35.648Z,17.70
2019-05-11T04:22:02.454Z,16.90
2019-05-11T04:24:32.151Z,17.77
2019-05-11T04:26:58.934Z,17.67
2019-05-11T04:29:28.505Z,17.03
2019-05-11T04:31:55.216Z,17.07
2019-05-11T04:34:21.816Z,17.70
2019-05-11T04:36:49.115Z,16.10
2019-05-11T04:39:16.222Z,16.67
2019-05-11T04:41:43.138Z,15.97
2019-05-11T04:44:09.845Z,16.80
2019-05-11T04:46:36.521Z,15.90
2019-05-11T04:49:03.687Z,16.73
2019-05-11T04:51:30.746Z,15.27
2019-05-11T04:53:57.185Z,15.43
2019-05-11T04:56:24.143Z,15.17
2019-05-11T04:58:50.805Z,15.73
2019-05-11T05:01:17.498Z,15.10
2019-05-11T05:03:47.541Z,15.13
2019-05-11T05:06:22.041Z,14.87
2019-05-11T05:08:41.161Z,14.80
2019-05-11T05:11:08.945Z,15.23
2019-05-11T05:13:35.634Z,14.10
2019-05-11T05:16:02.562Z,13.67
2019-05-11T05:18:32.237Z,13.53
2019-05-11T05:20:59.597Z,13.53
2019-05-11T05:23:26.437Z,12.77
2019-05-11T05:25:53.862Z,12.90
2019-05-11T05:28:20.613Z,12.33
2019-05-11T05:30:50.354Z,12.07
2019-05-11T05:33:17.644Z,12.00
2019-05-11T05:35:44.751Z,12.13
2019-05-11T05:38:11.534Z,13.17
2019-05-11T05:40:38.713Z,11.87
2019-05-11T05:43:05.365Z,11.57
2019-05-11T05:45:31.961Z,11.77
2019-05-11T05:47:58.604Z,11.77
2019-05-11T05:50:30.084Z,11.73
2019-05-11T05:52:57.105Z,12.27
2019-05-11T05:55:23.788Z,13.23
2019-05-11T05:57:50.635Z,13.17
2019-05-11T06:00:17.725Z,13.13
2019-05-11T06:02:44.456Z,11.93
2019-05-11T06:05:11.246Z,13.63
2019-05-11T06:07:37.838Z,11.53
2019-05-11T06:10:06.568Z,11.07
2019-05-11T06:12:33.222Z,11.83
2019-05-11T06:14:59.946Z,13.07
2019-05-11T06:17:26.848Z,12.23
2019-05-11T06:19:55.509Z,12.00
2019-05-11T06:22:22.189Z,12.27
2019-05-11T06:24:50.087Z,11.57
2019-05-11T06:27:16.719Z,10.87
2019-05-11T06:29:43.512Z,10.97
2019-05-11T06:32:10.203Z,10.70
2019-05-11T06:34:36.670Z,10.77
2019-05-11T06:37:03.256Z,10.40
2019-05-11T06:39:30.040Z,10.13
2019-05-11T06:41:56.782Z,10.90
2019-05-11T06:44:23.904Z,10.00
2019-05-11T06:46:50.671Z,10.43
2019-05-11T06:49:17.511Z,10.53
2019-05-11T06:51:44.296Z,10.07
2019-05-11T06:54:10.919Z,10.57
2019-05-11T06:56:37.723Z,11.67
2019-05-11T06:59:04.542Z,10.57
2019-05-11T07:01:37.287Z,10.33
2019-05-11T07:04:03.981Z,10.87
2019-05-11T07:06:30.922Z,10.60
2019-05-11T07:08:58.226Z,11.77
2019-05-11T07:11:24.929Z,11.33
2019-05-11T07:13:53.958Z,11.93
2019-05-11T07:16:20.768Z,12.43
2019-05-11T07:18:47.540Z,12.33
2019-05-11T07:21:14.208Z,9.87
2019-05-11T07:23:41.534Z,10.37
2019-05-11T07:26:08.066Z,9.83
2019-05-11T07:28:34.940Z,9.83
2019-05-11T07:31:04.630Z,10.10
2019-05-11T07:33:31.249Z,10.90
2019-05-11T07:35:58.383Z,10.50
2019-05-11T07:38:27.770Z,9.60
2019-05-11T07:40:54.339Z,10.87
2019-05-11T07:43:21.019Z,10.80
2019-05-11T07:45:48.097Z,9.47
2019-05-11T07:48:15.060Z,8.70
2019-05-11T07:50:42.604Z,8.07
2019-05-11T07:53:09.257Z,7.90
2019-05-11T07:55:38.656Z,8.03
2019-05-11T07:58:08.006Z,7.97
2019-05-11T08:00:37.427Z,8.30
2019-05-11T08:03:03.830Z,7.90
2019-05-11T08:05:30.610Z,7.77
2019-05-11T08:08:01.938Z,7.57
2019-05-11T08:10:28.796Z,7.43
2019-05-11T08:12:55.755Z,7.20
2019-05-11T08:15:22.911Z,7.97
2019-05-11T08:17:49.550Z,8.03
2019-05-11T08:20:18.498Z,8.27
2019-05-11T08:22:48.335Z,7.20
2019-05-11T08:25:18.052Z,7.90
2019-05-11T08:27:44.226Z,7.93
2019-05-11T08:30:12.189Z,8.20
2019-05-11T08:32:41.592Z,8.07
2019-05-11T08:35:09.241Z,7.93
2019-05-11T08:37:35.788Z,9.10
2019-05-11T08:40:07.904Z,9.13
2019-05-11T08:42:34.448Z,10.13
2019-05-11T08:45:15.824Z,10.00
2019-05-11T08:47:29.676Z,10.27
2019-05-11T08:49:58.759Z,11.13
2019-05-11T08:52:25.302Z,10.43
2019-05-11T08:54:51.942Z,10.63
2019-05-11T08:57:21.089Z,12.67
2019-05-11T08:59:48.384Z,10.57
2019-05-11T09:02:15.799Z,11.23
2019-05-11T09:04:42.560Z,13.50
2019-05-11T09:07:09.194Z,11.53
2019-05-11T09:09:38.016Z,13.10
2019-05-11T09:12:04.665Z,12.43
2019-05-11T09:14:31.299Z,13.60
2019-05-11T09:16:58.209Z,10.03
2019-05-11T09:19:28.223Z,10.20
2019-05-11T09:21:54.619Z,11.17
2019-05-11T09:24:24.295Z,10.27
2019-05-11T09:26:50.998Z,9.80
2019-05-11T09:29:18.027Z,10.10
2019-05-11T09:31:45.145Z,10.90
2019-05-11T09:34:11.755Z,9.13
2019-05-11T09:36:39.138Z,9.70
2019-05-11T09:39:08.496Z,10.27
2019-05-11T09:41:38.115Z,9.57
2019-05-11T09:44:04.218Z,8.37
2019-05-11T09:46:30.788Z,9.20
2019-05-11T09:48:59.070Z,9.87
2019-05-11T09:51:25.912Z,9.73
2019-05-11T09:53:52.533Z,9.33
2019-05-11T09:56:19.266Z,9.40
2019-05-11T09:58:47.939Z,10.33
2019-05-11T10:01:14.344Z,10.33
2019-05-11T10:03:40.907Z,10.43
2019-05-11T10:06:08.367Z,11.07
2019-05-11T10:08:37.916Z,10.17
2019-05-11T10:11:04.041Z,9.57
2019-05-11T10:13:30.673Z,9.87
2019-05-11T10:16:06.230Z,9.53
2019-05-11T10:18:27.961Z,9.97
2019-05-11T10:20:54.705Z,9.50
2019-05-11T10:23:21.186Z,10.27
2019-05-11T10:25:48.128Z,10.10
2019-05-11T10:28:14.847Z,9.40
2019-05-11T10:30:42.282Z,9.23
2019-05-11T10:33:08.716Z,9.70
2019-05-11T10:35:37.794Z,9.37
2019-05-11T10:38:04.195Z,9.53
2019-05-11T10:40:30.815Z,9.77
2019-05-11T10:42:58.975Z,9.00
2019-05-11T10:45:25.773Z,8.80
2019-05-11T10:47:55.762Z,8.50
2019-05-11T10:50:20.735Z,8.27
2019-05-11T10:52:48.409Z,7.53
2019-05-11T10:55:15.357Z,7.83
2019-05-11T10:57:41.793Z,7.43
2019-05-11T11:00:09.577Z,8.17
2019-05-11T11:02:38.244Z,7.23
2019-05-11T11:05:08.116Z,7.77
2019-05-11T11:07:35.192Z,7.10
2019-05-11T11:10:01.804Z,7.03
2019-05-11T11:12:28.576Z,6.93
2019-05-11T11:14:55.169Z,7.90
2019-05-11T11:17:21.681Z,8.03
2019-05-11T11:19:48.772Z,7.90
2019-05-11T11:22:33.274Z,7.50
2019-05-11T11:24:43.934Z,6.33
2019-05-11T11:27:10.949Z,7.03
2019-05-11T11:29:38.786Z,5.67
2019-05-11T11:32:07.926Z,5.80
2019-05-11T11:34:34.035Z,6.20
2019-05-11T11:37:00.665Z,6.37
2019-05-11T11:39:28.270Z,6.97
2019-05-11T11:41:55.260Z,6.90
2019-05-11T11:44:22.196Z,7.57
2019-05-11T11:46:54.981Z,7.70
2019-05-11T11:49:18.741Z,7.90
2019-05-11T11:51:45.533Z,7.20
2019-05-11T11:54:12.055Z,6.87
2019-05-11T11:56:38.663Z,6.60
2019-05-11T11:59:05.283Z,5.85
2019-05-11T12:01:31.939Z,6.25
2019-05-11T12:03:58.518Z,5.08
2019-05-11T12:06:25.139Z,5.35
2019-05-11T12:08:51.554Z,5.17
2019-05-11T12:11:18.954Z,5.20
2019-05-11T12:13:47.582Z,5.12
2019-05-11T12:16:14.179Z,5.30
2019-05-11T12:18:40.750Z,5.33
2019-05-11T12:21:08.009Z,5.95
2019-05-11T12:23:34.930Z,5.40
2019-05-11T12:26:01.486Z,5.67
2019-05-11T12:28:28.052Z,5.90
2019-05-11T12:30:55.109Z,5.45
2019-05-11T12:33:21.772Z,6.00
2019-05-11T12:35:48.767Z,5.42
2019-05-11T12:38:15.299Z,5.45
2019-05-11T12:40:42.278Z,5.53
2019-05-11T12:43:08.915Z,5.40
2019-05-11T12:45:37.504Z,4.70
2019-05-11T12:48:03.900Z,5.30
2019-05-11T12:50:30.560Z,5.25
2019-05-11T12:52:58.770Z,5.78
2019-05-11T12:55:28.879Z,4.90
2019-05-11T12:57:57.818Z,5.15
2019-05-11T13:00:23.923Z,5.28
2019-05-11T13:02:50.392Z,4.70
2019-05-11T13:05:18.003Z,4.78
2019-05-11T13:07:45.054Z,4.75
2019-05-11T13:10:14.172Z,4.80
2019-05-11T13:12:40.779Z,5.53
2019-05-11T13:15:08.325Z,4.92
2019-05-11T13:17:38.396Z,5.17
2019-05-11T13:20:08.408Z,5.28
2019-05-11T13:22:34.853Z,5.03
2019-05-11T13:25:02.257Z,5.62
2019-05-11T13:27:28.699Z,4.83
2019-05-11T13:29:55.598Z,4.92
2019-05-11T13:32:22.277Z,5.30
2019-05-11T13:34:48.786Z,5.03
2019-05-11T13:37:15.428Z,4.58
2019-05-11T13:39:43.570Z,4.70
2019-05-11T13:42:10.428Z,4.83
2019-05-11T13:44:38.497Z,4.30
2019-05-11T13:47:05.995Z,4.60
2019-05-11T13:49:32.799Z,4.55
2019-05-11T13:51:59.509Z,4.53
2019-05-11T13:54:26.197Z,4.35
2019-05-11T13:56:52.666Z,3.87
2019-05-11T13:59:19.297Z,3.95
2019-05-11T14:01:47.739Z,3.70
2019-05-11T14:04:14.164Z,3.87
2019-05-11T14:06:40.732Z,3.77
2019-05-11T14:09:08.571Z,4.15
2019-05-11T14:11:35.093Z,4.25
2019-05-11T14:14:01.753Z,4.00
2019-05-11T14:16:28.266Z,3.52
2019-05-11T14:18:55.203Z,3.98
2019-05-11T14:21:22.264Z,3.60
2019-05-11T14:23:48.773Z,3.95
2019-05-11T14:26:15.386Z,3.85
2019-05-11T14:28:41.939Z,3.98
2019-05-11T14:31:08.584Z,4.45
2019-05-11T14:33:34.997Z,4.28
2019-05-11T14:36:01.699Z,4.50
2019-05-11T14:38:28.897Z,4.70
2019-05-11T14:40:55.541Z,4.30
2019-05-11T14:43:22.109Z,4.42
2019-05-11T14:45:48.753Z,4.30
2019-05-11T14:48:24.162Z,3.85
2019-05-11T14:50:44.800Z,3.90
2019-05-11T14:53:11.510Z,4.30
2019-05-11T14:55:38.334Z,4.35
2019-05-11T14:58:05.018Z,4.80
2019-05-11T15:00:31.536Z,4.10
2019-05-11T15:02:58.530Z,3.92
2019-05-11T15:05:25.230Z,4.60
2019-05-11T15:07:52.815Z,4.28
2019-05-11T15:10:21.135Z,4.12
2019-05-11T15:12:48.860Z,4.10
2019-05-11T15:15:18.642Z,3.77
2019-05-11T15:17:45.613Z,3.98
2019-05-11T15:20:17.538Z,4.75
2019-05-11T15:22:42.264Z,3.97
2019-05-11T15:25:14.774Z,4.28
2019-05-11T15:27:41.439Z,4.33
2019-05-11T15:30:09.584Z,4.10
2019-05-11T15:32:37.588Z,3.70
2019-05-11T15:35:08.036Z,4.28
2019-05-11T15:37:35.188Z,4.30
2019-05-11T15:40:15.346Z,4.08
2019-05-11T15:42:43.328Z,4.28
2019-05-11T15:45:11.750Z,3.73
2019-05-11T15:47:38.517Z,4.10
2019-05-11T15:50:08.961Z,4.10
2019-05-11T15:52:39.868Z,4.65
2019-05-11T15:55:07.931Z,3.75
2019-05-11T15:57:34.161Z,4.10
2019-05-11T16:00:00.790Z,4.00
2019-05-11T16:02:28.921Z,3.83
2019-05-11T16:04:58.203Z,3.93
2019-05-11T16:07:24.432Z,4.17
2019-05-11T16:09:50.849Z,3.70
2019-05-11T16:12:18.190Z,4.07
2019-05-11T16:14:44.685Z,3.90
2019-05-11T16:17:11.383Z,4.20
2019-05-11T16:19:40.924Z,4.17
2019-05-11T16:22:09.834Z,4.23
2019-05-11T16:24:39.770Z,29.60
2019-05-11T16:27:03.224Z,4.20
2019-05-11T16:29:29.714Z,4.50
2019-05-11T16:31:57.840Z,3.87
2019-05-11T16:34:24.769Z,3.80
2019-05-11T16:36:51.331Z,4.10
2019-05-11T16:39:18.683Z,3.73
2019-05-11T16:41:45.661Z,3.77
2019-05-11T16:44:12.415Z,3.60
2019-05-11T16:46:39.074Z,3.97
2019-05-11T16:49:05.858Z,3.83
2019-05-11T16:51:32.797Z,3.90
2019-05-11T16:53:59.565Z,4.00
2019-05-11T16:56:26.132Z,3.53
2019-05-11T16:58:54.710Z,3.53
2019-05-11T17:01:21.109Z,3.70
2019-05-11T17:03:48.282Z,3.40
2019-05-11T17:06:15.226Z,3.57
2019-05-11T17:08:41.853Z,3.70
2019-05-11T17:11:08.451Z,3.40
2019-05-11T17:13:34.941Z,3.40
2019-05-11T17:16:01.579Z,4.03
2019-05-11T17:18:28.732Z,3.80
2019-05-11T17:20:55.271Z,3.97
2019-05-11T17:23:21.846Z,4.57
2019-05-11T17:25:48.508Z,4.00
2019-05-11T17:28:15.199Z,4.70
2019-05-11T17:30:41.838Z,4.37
2019-05-11T17:33:08.835Z,4.00
2019-05-11T17:35:35.523Z,3.97
2019-05-11T17:38:02.202Z,4.37
2019-05-11T17:40:28.717Z,4.00
2019-05-11T17:42:55.240Z,3.70
2019-05-11T17:45:22.161Z,4.10
2019-05-11T17:47:48.789Z,4.20
2019-05-11T17:50:15.471Z,4.20
2019-05-11T17:52:41.999Z,4.40
2019-05-11T17:55:08.608Z,4.83
2019-05-11T17:57:35.248Z,4.03
2019-05-11T18:00:04.690Z,4.50
2019-05-11T18:02:31.160Z,4.30
2019-05-11T18:04:58.439Z,3.83
2019-05-11T18:07:30.274Z,4.40
2019-05-11T18:09:54.827Z,4.10
2019-05-11T18:12:21.803Z,4.10
2019-05-11T18:14:48.363Z,4.30
2019-05-11T18:17:14.918Z,3.77
2019-05-11T18:19:41.653Z,4.30
2019-05-11T18:22:08.384Z,4.63
2019-05-11T18:24:35.080Z,5.47
2019-05-11T18:27:01.731Z,4.93
2019-05-11T18:29:28.790Z,4.47
2019-05-11T18:31:57.812Z,4.50
2019-05-11T18:34:24.204Z,4.30
2019-05-11T18:36:50.736Z,7.43
2019-05-11T18:39:18.609Z,4.33
2019-05-11T18:41:45.544Z,4.20
2019-05-11T18:44:13.984Z,4.03
2019-05-11T18:46:40.554Z,144.23
2019-05-11T18:49:07.077Z,10.03
2019-05-11T18:51:33.591Z,6.47
2019-05-11T18:54:00.264Z,5.43
2019-05-11T18:56:28.581Z,5.10
2019-05-11T18:58:58.239Z,8.93
2019-05-11T19:01:24.176Z,4.47
2019-05-11T19:03:50.695Z,5.23
2019-05-11T19:06:18.375Z,4.70
2019-05-11T19:08:47.680Z,5.83
2019-05-11T19:11:13.448Z,5.50
2019-05-11T19:13:40.010Z,6.03
2019-05-11T19:16:08.587Z,6.20
2019-05-11T19:18:35.414Z,7.63
2019-05-11T19:21:02.187Z,6.67
2019-05-11T19:23:28.930Z,6.43
2019-05-11T19:25:57.770Z,6.20
2019-05-11T19:28:23.887Z,5.97
2019-05-11T19:30:50.422Z,5.40
2019-05-11T19:33:18.975Z,5.07
2019-05-11T19:35:45.291Z,5.27
2019-05-11T19:38:11.948Z,4.70
2019-05-11T19:40:38.811Z,4.90
2019-05-11T19:43:07.679Z,23.53
2019-05-11T19:45:33.744Z,9.70
2019-05-11T19:48:00.918Z,5.90
2019-05-11T19:50:27.901Z,5.40
2019-05-11T19:52:54.438Z,5.13
2019-05-11T19:55:21.520Z,5.93
2019-05-11T19:57:48.417Z,6.50
2019-05-11T20:00:18.147Z,6.87
2019-05-11T20:02:43.859Z,8.17
2019-05-11T20:05:10.470Z,8.83
2019-05-11T20:07:37.784Z,9.40
2019-05-11T20:10:07.537Z,10.80
2019-05-11T20:12:34.364Z,12.17
2019-05-11T20:15:00.959Z,12.23
2019-05-11T20:17:28.772Z,12.43
2019-05-11T20:19:58.112Z,12.63
2019-05-11T20:22:24.041Z,13.03
2019-05-11T20:24:50.566Z,13.77
2019-05-11T20:27:18.613Z,15.30
2019-05-11T20:29:47.762Z,13.70
2019-05-11T20:32:14.856Z,14.20
2019-05-11T20:34:42.022Z,14.23
2019-05-11T20:37:08.543Z,14.17
2019-05-11T20:39:37.739Z,14.70
2019-05-11T20:42:03.737Z,14.43
2019-05-11T20:44:30.303Z,14.53
2019-05-11T20:46:58.024Z,14.17
2019-05-11T20:49:24.943Z,14.70
2019-05-11T20:51:51.987Z,14.33
2019-05-11T20:54:18.614Z,14.57
2019-05-11T20:56:47.839Z,14.13
2019-05-11T20:59:14.532Z,13.63
2019-05-11T21:01:41.171Z,13.77
2019-05-11T21:04:08.472Z,13.43
2019-05-11T21:06:35.149Z,12.47
2019-05-11T21:09:01.744Z,12.43
2019-05-11T21:11:28.269Z,12.90
2019-05-11T21:13:55.244Z,12.27
2019-05-11T21:16:21.962Z,12.27
2019-05-11T21:18:48.572Z,11.63
2019-05-11T21:21:15.235Z,11.70
2019-05-11T21:23:41.791Z,11.70
2019-05-11T21:26:09.980Z,11.03
2019-05-11T21:28:38.041Z,10.97
2019-05-11T21:31:07.791Z,10.47
2019-05-11T21:33:33.688Z,10.40
2019-05-11T21:36:00.768Z,10.57
2019-05-11T21:38:31.608Z,9.80
2019-05-11T21:40:57.938Z,10.27
2019-05-11T21:43:24.592Z,9.67
2019-05-11T21:45:50.996Z,9.00
2019-05-11T21:48:17.506Z,9.00
2019-05-11T21:50:44.121Z,9.40
2019-05-11T21:53:10.767Z,9.70
2019-05-11T21:55:37.832Z,9.27
2019-05-11T21:58:04.739Z,9.13
2019-05-11T22:00:32.593Z,8.87
2019-05-11T22:02:59.220Z,8.83
2019-05-11T22:05:25.919Z,8.00
2019-05-11T22:07:52.539Z,8.13
2019-05-11T22:10:19.273Z,8.70
2019-05-11T22:12:45.723Z,8.23
2019-05-11T22:15:13.117Z,8.17
2019-05-11T22:17:40.056Z,7.60
2019-05-11T22:20:09.091Z,7.60
2019-05-11T22:22:35.930Z,8.17
2019-05-11T22:25:04.780Z,7.67
2019-05-11T22:27:31.308Z,7.57
2019-05-11T22:29:58.914Z,7.73
2019-05-11T22:32:28.073Z,7.97
2019-05-11T22:34:54.929Z,7.83
2019-05-11T22:37:21.871Z,8.30
2019-05-11T22:39:49.438Z,8.30
2019-05-11T22:42:18.324Z,7.67
2019-05-11T22:44:45.053Z,8.47
2019-05-11T22:47:11.807Z,7.80
2019-05-11T22:49:38.410Z,8.40
2019-05-11T22:52:05.083Z,7.17
2019-05-11T22:54:31.661Z,8.13
2019-05-11T22:56:58.664Z,8.00
2019-05-11T22:59:28.129Z,8.07
2019-05-11T23:01:55.168Z,7.90
2019-05-11T23:04:21.914Z,8.97
2019-05-11T23:06:48.589Z,9.00
2019-05-11T23:09:15.431Z,9.57
2019-05-11T23:11:42.094Z,9.30
2019-05-11T23:14:09.974Z,9.73
2019-05-11T23:16:37.537Z,9.77
2019-05-11T23:19:09.478Z,9.67
2019-05-11T23:21:35.266Z,9.53
2019-05-11T23:24:02.259Z,9.43
2019-05-11T23:26:29.665Z,9.20
2019-05-11T23:28:57.962Z,10.20
2019-05-11T23:31:27.459Z,9.50
2019-05-11T23:33:54.139Z,9.07
2019-05-11T23:36:20.733Z,9.93
2019-05-11T23:38:47.810Z,9.83
2019-05-11T23:41:24.316Z,7.90
2019-05-11T23:43:43.386Z,8.43
2019-05-11T23:46:10.486Z,8.80
2019-05-11T23:48:38.615Z,8.93
2019-05-11T23:51:05.540Z,8.83
2019-05-11T23:53:32.163Z,8.20
2019-05-11T23:56:02.806Z,8.77
